sensor_id;sensor_type;location;lat;lon;timestamp;temperature;humidity
10891;DHT22;5498;50.928;11.598;2022-08-07T00:02:19;15.80;57.90
10891;DHT22;5498;50.928;11.598;2022-08-07T00:05:21;15.70;57.80
10891;DHT22;5498;50.928;11.598;2022-08-07T00:08:25;15.70;58.10
10891;DHT22;5498;50.928;11.598;2022-08-07T00:11:28;15.60;58.40
10891;DHT22;5498;50.928;11.598;2022-08-07T00:14:30;15.60;58.30
10891;DHT22;5498;50.928;11.598;2022-08-07T00:17:32;15.60;58.20
10891;DHT22;5498;50.928;11.598;2022-08-07T00:20:34;15.50;58.20
10891;DHT22;5498;50.928;11.598;2022-08-07T00:23:39;15.40;58.60
10891;DHT22;5498;50.928;11.598;2022-08-07T00:26:41;15.40;58.90
10891;DHT22;5498;50.928;11.598;2022-08-07T00:29:43;15.30;58.60
10891;DHT22;5498;50.928;11.598;2022-08-07T00:32:46;15.30;59.20
10891;DHT22;5498;50.928;11.598;2022-08-07T00:35:49;15.30;59.60
10891;DHT22;5498;50.928;11.598;2022-08-07T00:38:52;15.30;59.10
10891;DHT22;5498;50.928;11.598;2022-08-07T00:41:57;15.20;59.20
10891;DHT22;5498;50.928;11.598;2022-08-07T00:44:59;15.10;59.50
10891;DHT22;5498;50.928;11.598;2022-08-07T00:48:01;15.10;59.30
10891;DHT22;5498;50.928;11.598;2022-08-07T00:51:03;15.00;59.50
10891;DHT22;5498;50.928;11.598;2022-08-07T00:54:07;15.00;59.50
10891;DHT22;5498;50.928;11.598;2022-08-07T00:57:10;15.00;59.70
10891;DHT22;5498;50.928;11.598;2022-08-07T01:00:13;15.00;59.70
10891;DHT22;5498;50.928;11.598;2022-08-07T01:03:17;14.90;59.70
10891;DHT22;5498;50.928;11.598;2022-08-07T01:06:19;14.90;59.70
10891;DHT22;5498;50.928;11.598;2022-08-07T01:09:23;14.80;59.80
10891;DHT22;5498;50.928;11.598;2022-08-07T01:12:26;14.80;60.00
10891;DHT22;5498;50.928;11.598;2022-08-07T01:15:31;14.80;59.90
10891;DHT22;5498;50.928;11.598;2022-08-07T01:18:34;14.70;60.00
10891;DHT22;5498;50.928;11.598;2022-08-07T01:21:38;14.70;60.30
10891;DHT22;5498;50.928;11.598;2022-08-07T01:24:41;14.70;60.40
10891;DHT22;5498;50.928;11.598;2022-08-07T01:27:43;14.60;60.70
10891;DHT22;5498;50.928;11.598;2022-08-07T01:30:46;15.00;60.80
10891;DHT22;5498;50.928;11.598;2022-08-07T01:33:50;14.50;61.00
10891;DHT22;5498;50.928;11.598;2022-08-07T01:36:53;14.50;61.00
10891;DHT22;5498;50.928;11.598;2022-08-07T01:39:55;14.40;61.10
10891;DHT22;5498;50.928;11.598;2022-08-07T01:42:59;14.40;61.20
10891;DHT22;5498;50.928;11.598;2022-08-07T01:46:02;14.40;61.50
10891;DHT22;5498;50.928;11.598;2022-08-07T01:49:04;14.40;61.80
10891;DHT22;5498;50.928;11.598;2022-08-07T01:52:08;14.40;61.70
10891;DHT22;5498;50.928;11.598;2022-08-07T01:55:11;14.30;61.80
10891;DHT22;5498;50.928;11.598;2022-08-07T01:58:18;14.20;62.30
10891;DHT22;5498;50.928;11.598;2022-08-07T02:01:25;14.20;62.50
10891;DHT22;5498;50.928;11.598;2022-08-07T02:04:33;14.20;62.60
10891;DHT22;5498;50.928;11.598;2022-08-07T02:07:48;14.20;62.80
10891;DHT22;5498;50.928;11.598;2022-08-07T02:10:52;14.20;63.10
10891;DHT22;5498;50.928;11.598;2022-08-07T02:13:59;14.10;63.20
10891;DHT22;5498;50.928;11.598;2022-08-07T02:17:02;14.10;63.50
10891;DHT22;5498;50.928;11.598;2022-08-07T02:20:09;14.10;63.50
10891;DHT22;5498;50.928;11.598;2022-08-07T02:23:14;14.00;63.30
10891;DHT22;5498;50.928;11.598;2022-08-07T02:26:18;14.00;63.30
10891;DHT22;5498;50.928;11.598;2022-08-07T02:29:20;14.20;63.10
10891;DHT22;5498;50.928;11.598;2022-08-07T02:32:23;14.00;63.00
10891;DHT22;5498;50.928;11.598;2022-08-07T02:35:26;13.90;63.20
10891;DHT22;5498;50.928;11.598;2022-08-07T02:38:32;13.80;63.20
10891;DHT22;5498;50.928;11.598;2022-08-07T02:41:37;13.80;63.50
10891;DHT22;5498;50.928;11.598;2022-08-07T02:44:40;13.70;63.70
10891;DHT22;5498;50.928;11.598;2022-08-07T02:47:44;13.70;63.80
10891;DHT22;5498;50.928;11.598;2022-08-07T02:50:49;13.70;63.60
10891;DHT22;5498;50.928;11.598;2022-08-07T02:53:55;13.60;64.10
10891;DHT22;5498;50.928;11.598;2022-08-07T02:57:00;13.60;64.40
10891;DHT22;5498;50.928;11.598;2022-08-07T03:00:03;13.60;64.90
10891;DHT22;5498;50.928;11.598;2022-08-07T03:03:08;13.60;65.50
10891;DHT22;5498;50.928;11.598;2022-08-07T03:06:11;13.60;66.00
10891;DHT22;5498;50.928;11.598;2022-08-07T03:09:16;13.50;66.30
10891;DHT22;5498;50.928;11.598;2022-08-07T03:12:19;13.60;66.50
10891;DHT22;5498;50.928;11.598;2022-08-07T03:15:22;13.50;66.60
10891;DHT22;5498;50.928;11.598;2022-08-07T03:18:25;13.50;66.60
10891;DHT22;5498;50.928;11.598;2022-08-07T03:21:27;13.40;67.00
10891;DHT22;5498;50.928;11.598;2022-08-07T03:24:31;13.40;67.00
10891;DHT22;5498;50.928;11.598;2022-08-07T03:27:33;13.30;67.20
10891;DHT22;5498;50.928;11.598;2022-08-07T03:30:36;13.30;67.50
10891;DHT22;5498;50.928;11.598;2022-08-07T03:33:39;13.30;67.80
10891;DHT22;5498;50.928;11.598;2022-08-07T03:36:42;13.20;67.90
10891;DHT22;5498;50.928;11.598;2022-08-07T03:39:46;13.20;68.10
10891;DHT22;5498;50.928;11.598;2022-08-07T03:42:49;13.10;68.10
10891;DHT22;5498;50.928;11.598;2022-08-07T03:45:51;13.10;68.50
10891;DHT22;5498;50.928;11.598;2022-08-07T03:48:54;13.10;68.50
10891;DHT22;5498;50.928;11.598;2022-08-07T03:51:57;13.10;68.30
10891;DHT22;5498;50.928;11.598;2022-08-07T03:55:02;13.00;68.20
10891;DHT22;5498;50.928;11.598;2022-08-07T03:58:05;13.00;68.80
10891;DHT22;5498;50.928;11.598;2022-08-07T04:01:09;13.00;68.60
10891;DHT22;5498;50.928;11.598;2022-08-07T04:04:12;12.90;69.00
10891;DHT22;5498;50.928;11.598;2022-08-07T04:07:17;12.90;69.10
10891;DHT22;5498;50.928;11.598;2022-08-07T04:10:20;12.80;68.80
10891;DHT22;5498;50.928;11.598;2022-08-07T04:13:23;12.80;69.00
10891;DHT22;5498;50.928;11.598;2022-08-07T04:16:25;12.80;69.20
10891;DHT22;5498;50.928;11.598;2022-08-07T04:19:27;12.70;69.20
10891;DHT22;5498;50.928;11.598;2022-08-07T04:22:30;12.70;69.00
10891;DHT22;5498;50.928;11.598;2022-08-07T04:25:34;12.70;69.10
10891;DHT22;5498;50.928;11.598;2022-08-07T04:28:40;12.70;69.60
10891;DHT22;5498;50.928;11.598;2022-08-07T04:31:42;12.70;69.80
10891;DHT22;5498;50.928;11.598;2022-08-07T04:34:45;12.80;69.80
10891;DHT22;5498;50.928;11.598;2022-08-07T04:37:47;13.00;69.40
10891;DHT22;5498;50.928;11.598;2022-08-07T04:40:50;13.10;68.70
10891;DHT22;5498;50.928;11.598;2022-08-07T04:43:52;13.30;68.60
10891;DHT22;5498;50.928;11.598;2022-08-07T04:47:02;13.60;68.10
10891;DHT22;5498;50.928;11.598;2022-08-07T04:50:11;13.80;67.30
10891;DHT22;5498;50.928;11.598;2022-08-07T04:53:19;14.00;66.60
10891;DHT22;5498;50.928;11.598;2022-08-07T04:56:31;14.20;66.00
10891;DHT22;5498;50.928;11.598;2022-08-07T04:59:44;14.50;65.30
10891;DHT22;5498;50.928;11.598;2022-08-07T05:02:55;14.70;64.50
10891;DHT22;5498;50.928;11.598;2022-08-07T05:06:04;14.90;63.80
10891;DHT22;5498;50.928;11.598;2022-08-07T05:09:15;15.00;63.30
10891;DHT22;5498;50.928;11.598;2022-08-07T05:12:29;15.20;62.70
10891;DHT22;5498;50.928;11.598;2022-08-07T05:15:38;15.30;62.30
10891;DHT22;5498;50.928;11.598;2022-08-07T05:18:47;15.40;61.80
10891;DHT22;5498;50.928;11.598;2022-08-07T05:21:55;15.60;61.80
10891;DHT22;5498;50.928;11.598;2022-08-07T05:25:01;15.90;61.50
10891;DHT22;5498;50.928;11.598;2022-08-07T05:28:05;16.10;60.60
10891;DHT22;5498;50.928;11.598;2022-08-07T05:31:07;16.30;60.20
10891;DHT22;5498;50.928;11.598;2022-08-07T05:34:14;16.60;59.60
10891;DHT22;5498;50.928;11.598;2022-08-07T05:37:18;16.80;59.20
10891;DHT22;5498;50.928;11.598;2022-08-07T05:40:22;17.10;58.50
10891;DHT22;5498;50.928;11.598;2022-08-07T05:43:25;17.40;57.70
10891;DHT22;5498;50.928;11.598;2022-08-07T05:46:28;17.50;57.00
10891;DHT22;5498;50.928;11.598;2022-08-07T05:49:31;17.80;56.80
10891;DHT22;5498;50.928;11.598;2022-08-07T05:52:34;18.00;56.00
10891;DHT22;5498;50.928;11.598;2022-08-07T05:55:36;18.20;55.00
10891;DHT22;5498;50.928;11.598;2022-08-07T05:58:40;18.40;55.10
10891;DHT22;5498;50.928;11.598;2022-08-07T06:01:44;18.70;54.60
10891;DHT22;5498;50.928;11.598;2022-08-07T06:04:51;18.90;54.30
10891;DHT22;5498;50.928;11.598;2022-08-07T06:07:56;19.10;53.70
10891;DHT22;5498;50.928;11.598;2022-08-07T06:10:59;19.30;53.50
10891;DHT22;5498;50.928;11.598;2022-08-07T06:14:03;19.50;53.20
10891;DHT22;5498;50.928;11.598;2022-08-07T06:17:06;19.80;52.30
10891;DHT22;5498;50.928;11.598;2022-08-07T06:20:09;20.00;51.80
10891;DHT22;5498;50.928;11.598;2022-08-07T06:23:12;20.10;51.50
10891;DHT22;5498;50.928;11.598;2022-08-07T06:26:14;20.30;50.80
10891;DHT22;5498;50.928;11.598;2022-08-07T06:29:17;20.60;50.30
10891;DHT22;5498;50.928;11.598;2022-08-07T06:32:19;20.70;49.70
10891;DHT22;5498;50.928;11.598;2022-08-07T06:35:21;20.80;49.80
10891;DHT22;5498;50.928;11.598;2022-08-07T06:38:23;21.10;49.20
10891;DHT22;5498;50.928;11.598;2022-08-07T06:41:28;21.40;49.00
10891;DHT22;5498;50.928;11.598;2022-08-07T06:44:36;21.60;48.60
10891;DHT22;5498;50.928;11.598;2022-08-07T06:47:40;21.80;48.20
10891;DHT22;5498;50.928;11.598;2022-08-07T06:50:43;22.00;47.60
10891;DHT22;5498;50.928;11.598;2022-08-07T06:53:47;22.10;47.00
10891;DHT22;5498;50.928;11.598;2022-08-07T06:56:49;22.20;46.50
10891;DHT22;5498;50.928;11.598;2022-08-07T06:59:54;22.40;46.60
10891;DHT22;5498;50.928;11.598;2022-08-07T07:02:57;22.50;46.20
10891;DHT22;5498;50.928;11.598;2022-08-07T07:06:00;22.60;46.00
10891;DHT22;5498;50.928;11.598;2022-08-07T07:09:27;22.80;45.70
10891;DHT22;5498;50.928;11.598;2022-08-07T07:12:37;23.00;45.70
10891;DHT22;5498;50.928;11.598;2022-08-07T07:15:45;23.80;45.70
10891;DHT22;5498;50.928;11.598;2022-08-07T07:18:51;23.70;44.90
10891;DHT22;5498;50.928;11.598;2022-08-07T07:21:57;23.90;44.10
10891;DHT22;5498;50.928;11.598;2022-08-07T07:25:00;23.70;43.80
10891;DHT22;5498;50.928;11.598;2022-08-07T07:28:09;23.70;43.80
10891;DHT22;5498;50.928;11.598;2022-08-07T07:31:19;23.80;43.80
10891;DHT22;5498;50.928;11.598;2022-08-07T07:34:28;23.70;43.70
10891;DHT22;5498;50.928;11.598;2022-08-07T07:37:33;24.50;44.20
10891;DHT22;5498;50.928;11.598;2022-08-07T07:40:39;24.30;44.10
10891;DHT22;5498;50.928;11.598;2022-08-07T07:43:43;24.60;44.30
10891;DHT22;5498;50.928;11.598;2022-08-07T07:46:48;24.90;43.70
10891;DHT22;5498;50.928;11.598;2022-08-07T07:49:52;25.10;42.50
10891;DHT22;5498;50.928;11.598;2022-08-07T07:52:55;25.10;42.30
10891;DHT22;5498;50.928;11.598;2022-08-07T07:55:58;25.30;42.40
10891;DHT22;5498;50.928;11.598;2022-08-07T07:59:02;25.50;41.80
10891;DHT22;5498;50.928;11.598;2022-08-07T08:02:07;25.90;41.70
10891;DHT22;5498;50.928;11.598;2022-08-07T08:05:10;26.00;41.20
10891;DHT22;5498;50.928;11.598;2022-08-07T08:08:12;26.50;41.20
10891;DHT22;5498;50.928;11.598;2022-08-07T08:11:15;26.80;40.90
10891;DHT22;5498;50.928;11.598;2022-08-07T08:14:17;26.70;41.20
10891;DHT22;5498;50.928;11.598;2022-08-07T08:17:21;27.10;40.10
10891;DHT22;5498;50.928;11.598;2022-08-07T08:20:24;27.40;40.00
10891;DHT22;5498;50.928;11.598;2022-08-07T08:23:29;27.60;39.80
10891;DHT22;5498;50.928;11.598;2022-08-07T08:26:50;27.80;39.70
10891;DHT22;5498;50.928;11.598;2022-08-07T08:30:07;28.00;39.20
10891;DHT22;5498;50.928;11.598;2022-08-07T08:33:14;28.20;38.40
10891;DHT22;5498;50.928;11.598;2022-08-07T08:36:19;28.30;38.10
10891;DHT22;5498;50.928;11.598;2022-08-07T08:39:24;28.40;38.10
10891;DHT22;5498;50.928;11.598;2022-08-07T08:42:33;28.50;37.70
10891;DHT22;5498;50.928;11.598;2022-08-07T08:45:43;28.80;37.70
10891;DHT22;5498;50.928;11.598;2022-08-07T08:48:57;28.80;36.90
10891;DHT22;5498;50.928;11.598;2022-08-07T08:52:11;29.00;36.00
10891;DHT22;5498;50.928;11.598;2022-08-07T08:55:21;29.20;35.50
10891;DHT22;5498;50.928;11.598;2022-08-07T08:58:33;29.30;34.40
10891;DHT22;5498;50.928;11.598;2022-08-07T09:01:42;29.40;35.20
10891;DHT22;5498;50.928;11.598;2022-08-07T09:04:55;29.30;35.00
10891;DHT22;5498;50.928;11.598;2022-08-07T09:08:13;29.20;34.20
10891;DHT22;5498;50.928;11.598;2022-08-07T09:11:24;28.60;32.90
10891;DHT22;5498;50.928;11.598;2022-08-07T09:14:35;27.20;34.40
10891;DHT22;5498;50.928;11.598;2022-08-07T09:17:45;26.40;35.70
10891;DHT22;5498;50.928;11.598;2022-08-07T09:21:00;26.40;36.40
10891;DHT22;5498;50.928;11.598;2022-08-07T09:24:13;26.10;36.20
10891;DHT22;5498;50.928;11.598;2022-08-07T09:27:29;25.80;36.80
10891;DHT22;5498;50.928;11.598;2022-08-07T09:30:45;25.90;37.20
10891;DHT22;5498;50.928;11.598;2022-08-07T09:34:05;25.90;36.80
10891;DHT22;5498;50.928;11.598;2022-08-07T09:37:18;25.90;37.00
10891;DHT22;5498;50.928;11.598;2022-08-07T09:40:28;26.20;36.80
10891;DHT22;5498;50.928;11.598;2022-08-07T09:43:50;26.60;35.90
10891;DHT22;5498;50.928;11.598;2022-08-07T09:47:05;26.90;36.10
10891;DHT22;5498;50.928;11.598;2022-08-07T09:50:19;26.00;35.40
10891;DHT22;5498;50.928;11.598;2022-08-07T09:53:32;25.90;36.40
10891;DHT22;5498;50.928;11.598;2022-08-07T09:56:57;25.60;36.20
10891;DHT22;5498;50.928;11.598;2022-08-07T10:00:19;25.50;38.10
10891;DHT22;5498;50.928;11.598;2022-08-07T10:07:29;25.80;38.10
10891;DHT22;5498;50.928;11.598;2022-08-07T10:10:47;26.10;37.00
10891;DHT22;5498;50.928;11.598;2022-08-07T10:14:03;26.00;36.10
10891;DHT22;5498;50.928;11.598;2022-08-07T10:17:33;25.80;36.50
10891;DHT22;5498;50.928;11.598;2022-08-07T10:21:01;25.60;36.70
10891;DHT22;5498;50.928;11.598;2022-08-07T10:24:34;25.70;37.00
10891;DHT22;5498;50.928;11.598;2022-08-07T10:28:07;25.50;37.00
10891;DHT22;5498;50.928;11.598;2022-08-07T10:31:28;26.00;38.10
10891;DHT22;5498;50.928;11.598;2022-08-07T10:34:51;25.90;37.50
10891;DHT22;5498;50.928;11.598;2022-08-07T10:38:10;26.00;36.50
10891;DHT22;5498;50.928;11.598;2022-08-07T10:41:26;25.70;36.40
10891;DHT22;5498;50.928;11.598;2022-08-07T10:44:39;25.60;36.60
10891;DHT22;5498;50.928;11.598;2022-08-07T10:47:50;25.70;36.70
10891;DHT22;5498;50.928;11.598;2022-08-07T10:51:06;25.20;37.30
10891;DHT22;5498;50.928;11.598;2022-08-07T10:54:16;25.10;36.80
10891;DHT22;5498;50.928;11.598;2022-08-07T10:57:25;25.10;37.50
10891;DHT22;5498;50.928;11.598;2022-08-07T11:00:44;25.40;37.30
10891;DHT22;5498;50.928;11.598;2022-08-07T11:03:58;25.40;37.10
10891;DHT22;5498;50.928;11.598;2022-08-07T11:07:04;24.90;36.80
10891;DHT22;5498;50.928;11.598;2022-08-07T11:10:17;24.70;37.30
10891;DHT22;5498;50.928;11.598;2022-08-07T11:13:33;24.90;36.70
10891;DHT22;5498;50.928;11.598;2022-08-07T11:16:44;25.10;36.60
10891;DHT22;5498;50.928;11.598;2022-08-07T11:19:50;25.30;36.20
10891;DHT22;5498;50.928;11.598;2022-08-07T11:23:05;25.20;36.00
10891;DHT22;5498;50.928;11.598;2022-08-07T11:26:13;25.30;36.30
10891;DHT22;5498;50.928;11.598;2022-08-07T11:29:39;25.20;36.70
10891;DHT22;5498;50.928;11.598;2022-08-07T11:32:50;25.80;37.30
10891;DHT22;5498;50.928;11.598;2022-08-07T11:36:08;25.40;36.80
10891;DHT22;5498;50.928;11.598;2022-08-07T11:39:22;25.10;37.20
10891;DHT22;5498;50.928;11.598;2022-08-07T11:42:40;25.00;37.30
10891;DHT22;5498;50.928;11.598;2022-08-07T11:46:04;25.00;37.10
10891;DHT22;5498;50.928;11.598;2022-08-07T11:49:52;25.10;36.70
10891;DHT22;5498;50.928;11.598;2022-08-07T11:53:12;25.00;37.30
10891;DHT22;5498;50.928;11.598;2022-08-07T11:56:33;25.10;36.90
10891;DHT22;5498;50.928;11.598;2022-08-07T11:59:46;25.10;37.80
10891;DHT22;5498;50.928;11.598;2022-08-07T12:03:20;24.80;37.60
10891;DHT22;5498;50.928;11.598;2022-08-07T12:06:46;25.40;36.80
10891;DHT22;5498;50.928;11.598;2022-08-07T12:09:55;25.50;36.60
10891;DHT22;5498;50.928;11.598;2022-08-07T12:13:02;25.60;37.00
10891;DHT22;5498;50.928;11.598;2022-08-07T12:16:11;25.60;36.40
10891;DHT22;5498;50.928;11.598;2022-08-07T12:19:20;25.60;36.20
10891;DHT22;5498;50.928;11.598;2022-08-07T12:22:38;25.60;36.50
10891;DHT22;5498;50.928;11.598;2022-08-07T12:25:47;25.50;36.50
10891;DHT22;5498;50.928;11.598;2022-08-07T12:29:02;25.30;36.20
10891;DHT22;5498;50.928;11.598;2022-08-07T12:32:14;25.00;37.40
10891;DHT22;5498;50.928;11.598;2022-08-07T12:35:22;24.80;36.60
10891;DHT22;5498;50.928;11.598;2022-08-07T12:38:27;24.90;36.40
10891;DHT22;5498;50.928;11.598;2022-08-07T12:41:33;24.90;35.80
10891;DHT22;5498;50.928;11.598;2022-08-07T12:44:39;25.00;36.40
10891;DHT22;5498;50.928;11.598;2022-08-07T12:47:51;25.00;35.50
10891;DHT22;5498;50.928;11.598;2022-08-07T12:51:03;24.80;35.50
10891;DHT22;5498;50.928;11.598;2022-08-07T12:54:22;24.80;36.00
10891;DHT22;5498;50.928;11.598;2022-08-07T12:57:30;24.70;36.40
10891;DHT22;5498;50.928;11.598;2022-08-07T13:00:46;24.50;36.10
10891;DHT22;5498;50.928;11.598;2022-08-07T13:03:59;24.30;36.10
10891;DHT22;5498;50.928;11.598;2022-08-07T13:07:41;24.40;36.40
10891;DHT22;5498;50.928;11.598;2022-08-07T13:11:04;24.50;36.80
10891;DHT22;5498;50.928;11.598;2022-08-07T13:14:17;24.70;36.90
10891;DHT22;5498;50.928;11.598;2022-08-07T13:17:30;24.80;36.80
10891;DHT22;5498;50.928;11.598;2022-08-07T13:20:40;24.80;36.80
10891;DHT22;5498;50.928;11.598;2022-08-07T13:23:51;24.70;36.70
10891;DHT22;5498;50.928;11.598;2022-08-07T13:27:02;24.80;36.80
10891;DHT22;5498;50.928;11.598;2022-08-07T13:30:09;24.90;36.70
10891;DHT22;5498;50.928;11.598;2022-08-07T13:33:19;24.90;36.50
10891;DHT22;5498;50.928;11.598;2022-08-07T13:36:29;25.00;36.80
10891;DHT22;5498;50.928;11.598;2022-08-07T13:39:37;25.10;36.60
10891;DHT22;5498;50.928;11.598;2022-08-07T13:42:49;25.20;36.50
10891;DHT22;5498;50.928;11.598;2022-08-07T13:45:54;25.10;36.30
10891;DHT22;5498;50.928;11.598;2022-08-07T13:48:59;25.10;36.20
10891;DHT22;5498;50.928;11.598;2022-08-07T13:52:05;24.90;36.30
10891;DHT22;5498;50.928;11.598;2022-08-07T13:55:11;25.00;36.30
10891;DHT22;5498;50.928;11.598;2022-08-07T13:58:17;25.00;36.50
10891;DHT22;5498;50.928;11.598;2022-08-07T14:01:47;24.80;36.10
10891;DHT22;5498;50.928;11.598;2022-08-07T14:04:53;24.90;36.70
10891;DHT22;5498;50.928;11.598;2022-08-07T14:07:59;25.00;36.40
10891;DHT22;5498;50.928;11.598;2022-08-07T14:11:04;25.00;36.20
10891;DHT22;5498;50.928;11.598;2022-08-07T14:14:10;24.70;35.90
10891;DHT22;5498;50.928;11.598;2022-08-07T14:17:13;24.60;36.40
10891;DHT22;5498;50.928;11.598;2022-08-07T14:20:20;24.70;36.40
10891;DHT22;5498;50.928;11.598;2022-08-07T14:23:26;24.80;36.20
10891;DHT22;5498;50.928;11.598;2022-08-07T14:26:33;24.60;36.00
10891;DHT22;5498;50.928;11.598;2022-08-07T14:29:43;24.70;36.30
10891;DHT22;5498;50.928;11.598;2022-08-07T14:32:53;24.70;36.10
10891;DHT22;5498;50.928;11.598;2022-08-07T14:35:57;25.10;36.10
10891;DHT22;5498;50.928;11.598;2022-08-07T14:39:00;24.80;36.10
10891;DHT22;5498;50.928;11.598;2022-08-07T14:42:05;24.60;35.20
10891;DHT22;5498;50.928;11.598;2022-08-07T14:45:11;24.60;35.70
10891;DHT22;5498;50.928;11.598;2022-08-07T14:48:16;24.70;35.60
10891;DHT22;5498;50.928;11.598;2022-08-07T14:51:25;24.80;35.70
10891;DHT22;5498;50.928;11.598;2022-08-07T14:54:31;25.00;34.80
10891;DHT22;5498;50.928;11.598;2022-08-07T14:57:34;25.00;35.00
10891;DHT22;5498;50.928;11.598;2022-08-07T15:00:41;25.10;35.00
10891;DHT22;5498;50.928;11.598;2022-08-07T15:03:44;25.20;34.90
10891;DHT22;5498;50.928;11.598;2022-08-07T15:06:48;25.20;34.80
10891;DHT22;5498;50.928;11.598;2022-08-07T15:09:51;25.50;34.60
10891;DHT22;5498;50.928;11.598;2022-08-07T15:12:59;25.20;34.50
10891;DHT22;5498;50.928;11.598;2022-08-07T15:16:06;25.20;34.60
10891;DHT22;5498;50.928;11.598;2022-08-07T15:19:14;25.30;35.00
10891;DHT22;5498;50.928;11.598;2022-08-07T15:22:16;25.30;35.10
10891;DHT22;5498;50.928;11.598;2022-08-07T15:25:23;25.20;34.10
10891;DHT22;5498;50.928;11.598;2022-08-07T15:28:28;25.10;34.70
10891;DHT22;5498;50.928;11.598;2022-08-07T15:31:34;25.00;35.30
10891;DHT22;5498;50.928;11.598;2022-08-07T15:34:40;25.00;35.10
10891;DHT22;5498;50.928;11.598;2022-08-07T15:37:49;25.00;35.10
10891;DHT22;5498;50.928;11.598;2022-08-07T15:40:56;25.30;34.70
10891;DHT22;5498;50.928;11.598;2022-08-07T15:44:06;25.20;34.70
10891;DHT22;5498;50.928;11.598;2022-08-07T15:47:16;25.20;35.10
10891;DHT22;5498;50.928;11.598;2022-08-07T15:50:26;25.10;34.70
10891;DHT22;5498;50.928;11.598;2022-08-07T15:53:38;25.20;34.70
10891;DHT22;5498;50.928;11.598;2022-08-07T15:56:44;25.20;35.20
10891;DHT22;5498;50.928;11.598;2022-08-07T15:59:48;25.10;34.40
10891;DHT22;5498;50.928;11.598;2022-08-07T16:02:54;25.10;35.20
10891;DHT22;5498;50.928;11.598;2022-08-07T16:05:57;25.20;35.20
10891;DHT22;5498;50.928;11.598;2022-08-07T16:09:02;25.10;34.90
10891;DHT22;5498;50.928;11.598;2022-08-07T16:12:12;25.10;35.30
10891;DHT22;5498;50.928;11.598;2022-08-07T16:15:31;25.20;35.20
10891;DHT22;5498;50.928;11.598;2022-08-07T16:18:49;25.10;35.60
10891;DHT22;5498;50.928;11.598;2022-08-07T16:22:07;24.90;34.90
10891;DHT22;5498;50.928;11.598;2022-08-07T16:25:31;24.80;35.80
10891;DHT22;5498;50.928;11.598;2022-08-07T16:28:57;24.90;35.50
10891;DHT22;5498;50.928;11.598;2022-08-07T16:32:07;24.90;35.50
10891;DHT22;5498;50.928;11.598;2022-08-07T16:35:22;24.90;35.50
10891;DHT22;5498;50.928;11.598;2022-08-07T16:38:37;24.90;34.80
10891;DHT22;5498;50.928;11.598;2022-08-07T16:42:08;24.80;35.40
10891;DHT22;5498;50.928;11.598;2022-08-07T16:45:34;24.70;35.60
10891;DHT22;5498;50.928;11.598;2022-08-07T16:49:16;25.00;35.50
10891;DHT22;5498;50.928;11.598;2022-08-07T16:52:47;24.60;35.60
10891;DHT22;5498;50.928;11.598;2022-08-07T16:56:12;24.70;35.40
10891;DHT22;5498;50.928;11.598;2022-08-07T16:59:31;24.70;35.40
10891;DHT22;5498;50.928;11.598;2022-08-07T17:02:40;24.70;35.70
10891;DHT22;5498;50.928;11.598;2022-08-07T17:06:11;24.60;35.80
10891;DHT22;5498;50.928;11.598;2022-08-07T17:09:19;24.60;35.40
10891;DHT22;5498;50.928;11.598;2022-08-07T17:12:37;24.50;35.50
10891;DHT22;5498;50.928;11.598;2022-08-07T17:15:47;24.60;35.70
10891;DHT22;5498;50.928;11.598;2022-08-07T17:19:07;24.60;35.90
10891;DHT22;5498;50.928;11.598;2022-08-07T17:22:15;24.70;35.90
10891;DHT22;5498;50.928;11.598;2022-08-07T17:25:25;24.60;35.50
10891;DHT22;5498;50.928;11.598;2022-08-07T17:28:34;24.50;35.50
10891;DHT22;5498;50.928;11.598;2022-08-07T17:31:47;24.50;35.30
10891;DHT22;5498;50.928;11.598;2022-08-07T17:34:53;24.50;35.60
10891;DHT22;5498;50.928;11.598;2022-08-07T17:38:01;24.50;35.80
10891;DHT22;5498;50.928;11.598;2022-08-07T17:41:14;24.50;35.90
10891;DHT22;5498;50.928;11.598;2022-08-07T17:44:22;24.40;35.80
10891;DHT22;5498;50.928;11.598;2022-08-07T17:47:34;24.50;35.70
10891;DHT22;5498;50.928;11.598;2022-08-07T17:50:48;24.50;35.60
10891;DHT22;5498;50.928;11.598;2022-08-07T17:53:57;24.70;35.90
10891;DHT22;5498;50.928;11.598;2022-08-07T17:57:17;24.50;35.90
10891;DHT22;5498;50.928;11.598;2022-08-07T18:00:25;24.40;36.00
10891;DHT22;5498;50.928;11.598;2022-08-07T18:03:34;24.30;36.10
10891;DHT22;5498;50.928;11.598;2022-08-07T18:06:47;24.30;36.10
10891;DHT22;5498;50.928;11.598;2022-08-07T18:09:57;24.20;35.40
10891;DHT22;5498;50.928;11.598;2022-08-07T18:13:10;24.10;36.10
10891;DHT22;5498;50.928;11.598;2022-08-07T18:16:29;24.00;36.00
10891;DHT22;5498;50.928;11.598;2022-08-07T18:19:39;24.00;36.40
10891;DHT22;5498;50.928;11.598;2022-08-07T18:22:49;24.10;36.60
10891;DHT22;5498;50.928;11.598;2022-08-07T18:25:57;24.10;36.60
10891;DHT22;5498;50.928;11.598;2022-08-07T18:29:10;24.10;36.60
10891;DHT22;5498;50.928;11.598;2022-08-07T18:32:27;24.10;36.70
10891;DHT22;5498;50.928;11.598;2022-08-07T18:35:49;24.00;36.90
10891;DHT22;5498;50.928;11.598;2022-08-07T18:39:10;24.00;37.20
10891;DHT22;5498;50.928;11.598;2022-08-07T18:42:18;24.00;37.50
10891;DHT22;5498;50.928;11.598;2022-08-07T18:45:35;24.30;37.80
10891;DHT22;5498;50.928;11.598;2022-08-07T18:48:57;23.70;37.80
10891;DHT22;5498;50.928;11.598;2022-08-07T18:52:08;23.70;38.20
10891;DHT22;5498;50.928;11.598;2022-08-07T18:55:36;23.50;38.40
10891;DHT22;5498;50.928;11.598;2022-08-07T18:58:55;23.50;38.70
10891;DHT22;5498;50.928;11.598;2022-08-07T19:02:06;23.40;38.90
10891;DHT22;5498;50.928;11.598;2022-08-07T19:05:19;23.30;39.00
10891;DHT22;5498;50.928;11.598;2022-08-07T19:08:31;23.00;38.90
10891;DHT22;5498;50.928;11.598;2022-08-07T19:11:56;22.90;38.50
10891;DHT22;5498;50.928;11.598;2022-08-07T19:15:19;22.70;39.20
10891;DHT22;5498;50.928;11.598;2022-08-07T19:18:32;22.60;39.60
10891;DHT22;5498;50.928;11.598;2022-08-07T19:21:42;22.90;40.30
10891;DHT22;5498;50.928;11.598;2022-08-07T19:24:48;22.60;41.90
10891;DHT22;5498;50.928;11.598;2022-08-07T19:27:53;22.50;41.90
10891;DHT22;5498;50.928;11.598;2022-08-07T19:31:13;22.80;42.10
10891;DHT22;5498;50.928;11.598;2022-08-07T19:34:22;22.10;40.90
10891;DHT22;5498;50.928;11.598;2022-08-07T19:37:33;22.40;40.30
10891;DHT22;5498;50.928;11.598;2022-08-07T19:40:39;22.60;42.00
10891;DHT22;5498;50.928;11.598;2022-08-07T19:43:45;22.30;41.20
10891;DHT22;5498;50.928;11.598;2022-08-07T19:47:05;22.30;42.30
10891;DHT22;5498;50.928;11.598;2022-08-07T19:50:24;22.20;42.30
10891;DHT22;5498;50.928;11.598;2022-08-07T19:53:26;22.10;42.10
10891;DHT22;5498;50.928;11.598;2022-08-07T19:56:33;22.00;41.60
10891;DHT22;5498;50.928;11.598;2022-08-07T19:59:40;22.30;42.60